sensor_id;sensor_type;location;lat;lon;timestamp;P1;durP1;ratioP1;P2;durP2;ratioP2
13331;SDS011;6735;51.456;12.626;2023-01-31T00:01:26;6.70;;;2.20;;
13331;SDS011;6735;51.456;12.626;2023-01-31T00:03:57;2.60;;;1.50;;
13331;SDS011;6735;51.456;12.626;2023-01-31T00:06:32;5.43;;;1.70;;
13331;SDS011;6735;51.456;12.626;2023-01-31T00:08:59;4.80;;;1.60;;
13331;SDS011;6735;51.456;12.626;2023-01-31T00:11:26;7.20;;;2.13;;
13331;SDS011;6735;51.456;12.626;2023-01-31T00:13:53;4.27;;;2.20;;
13331;SDS011;6735;51.456;12.626;2023-01-31T00:16:20;8.10;;;2.17;;
13331;SDS011;6735;51.456;12.626;2023-01-31T00:18:46;3.77;;;1.97;;
13331;SDS011;6735;51.456;12.626;2023-01-31T00:23:39;7.03;;;2.93;;
13331;SDS011;6735;51.456;12.626;2023-01-31T00:26:06;13.20;;;2.90;;
13331;SDS011;6735;51.456;12.626;2023-01-31T00:28:33;10.77;;;2.97;;
13331;SDS011;6735;51.456;12.626;2023-01-31T00:30:59;12.17;;;3.00;;
13331;SDS011;6735;51.456;12.626;2023-01-31T00:33:24;11.33;;;3.50;;
13331;SDS011;6735;51.456;12.626;2023-01-31T00:35:50;9.73;;;3.70;;
13331;SDS011;6735;51.456;12.626;2023-01-31T00:38:15;13.60;;;3.47;;
13331;SDS011;6735;51.456;12.626;2023-01-31T00:40:41;14.67;;;4.27;;
13331;SDS011;6735;51.456;12.626;2023-01-31T00:43:06;21.53;;;4.10;;
13331;SDS011;6735;51.456;12.626;2023-01-31T00:45:32;14.17;;;3.80;;
13331;SDS011;6735;51.456;12.626;2023-01-31T00:47:57;17.83;;;3.87;;
13331;SDS011;6735;51.456;12.626;2023-01-31T00:50:23;18.60;;;3.97;;
13331;SDS011;6735;51.456;12.626;2023-01-31T00:52:49;14.77;;;3.73;;
13331;SDS011;6735;51.456;12.626;2023-01-31T00:55:14;20.17;;;4.03;;
13331;SDS011;6735;51.456;12.626;2023-01-31T00:57:40;16.33;;;3.90;;
13331;SDS011;6735;51.456;12.626;2023-01-31T01:00:07;17.43;;;4.03;;
13331;SDS011;6735;51.456;12.626;2023-01-31T01:02:33;13.40;;;4.30;;
13331;SDS011;6735;51.456;12.626;2023-01-31T01:04:58;18.13;;;4.40;;
13331;SDS011;6735;51.456;12.626;2023-01-31T01:07:24;15.73;;;3.97;;
13331;SDS011;6735;51.456;12.626;2023-01-31T01:09:49;15.70;;;3.70;;
13331;SDS011;6735;51.456;12.626;2023-01-31T01:12:16;24.03;;;4.37;;
13331;SDS011;6735;51.456;12.626;2023-01-31T01:14:41;16.27;;;4.00;;
13331;SDS011;6735;51.456;12.626;2023-01-31T01:17:07;14.27;;;3.90;;
13331;SDS011;6735;51.456;12.626;2023-01-31T01:19:32;20.30;;;4.60;;
13331;SDS011;6735;51.456;12.626;2023-01-31T01:21:58;19.27;;;4.37;;
13331;SDS011;6735;51.456;12.626;2023-01-31T01:24:23;20.80;;;4.20;;
13331;SDS011;6735;51.456;12.626;2023-01-31T01:26:49;18.67;;;4.60;;
13331;SDS011;6735;51.456;12.626;2023-01-31T01:29:14;20.23;;;4.20;;
13331;SDS011;6735;51.456;12.626;2023-01-31T01:31:40;13.63;;;3.40;;
13331;SDS011;6735;51.456;12.626;2023-01-31T01:34:06;17.10;;;3.80;;
13331;SDS011;6735;51.456;12.626;2023-01-31T01:36:36;16.90;;;3.83;;
13331;SDS011;6735;51.456;12.626;2023-01-31T01:39:06;20.63;;;4.33;;
13331;SDS011;6735;51.456;12.626;2023-01-31T01:41:33;10.50;;;3.37;;
13331;SDS011;6735;51.456;12.626;2023-01-31T01:43:59;18.07;;;3.80;;
13331;SDS011;6735;51.456;12.626;2023-01-31T01:46:28;17.23;;;4.10;;
13331;SDS011;6735;51.456;12.626;2023-01-31T01:49:02;14.67;;;3.90;;
13331;SDS011;6735;51.456;12.626;2023-01-31T01:51:37;8.80;;;3.17;;
13331;SDS011;6735;51.456;12.626;2023-01-31T01:54:05;10.80;;;3.87;;
13331;SDS011;6735;51.456;12.626;2023-01-31T01:56:37;11.67;;;2.97;;
13331;SDS011;6735;51.456;12.626;2023-01-31T01:59:07;14.43;;;4.17;;
13331;SDS011;6735;51.456;12.626;2023-01-31T02:01:46;12.80;;;3.27;;
13331;SDS011;6735;51.456;12.626;2023-01-31T02:04:14;11.00;;;3.20;;
13331;SDS011;6735;51.456;12.626;2023-01-31T02:06:43;17.13;;;3.70;;
13331;SDS011;6735;51.456;12.626;2023-01-31T02:09:20;12.97;;;3.40;;
13331;SDS011;6735;51.456;12.626;2023-01-31T02:12:01;14.17;;;3.37;;
13331;SDS011;6735;51.456;12.626;2023-01-31T02:14:26;13.80;;;3.27;;
13331;SDS011;6735;51.456;12.626;2023-01-31T02:16:52;13.70;;;3.03;;
13331;SDS011;6735;51.456;12.626;2023-01-31T02:19:25;15.40;;;3.73;;
13331;SDS011;6735;51.456;12.626;2023-01-31T02:22:03;13.50;;;3.43;;
13331;SDS011;6735;51.456;12.626;2023-01-31T02:27:43;13.17;;;3.93;;
13331;SDS011;6735;51.456;12.626;2023-01-31T02:30:49;12.47;;;3.90;;
13331;SDS011;6735;51.456;12.626;2023-01-31T02:33:56;15.93;;;3.57;;
13331;SDS011;6735;51.456;12.626;2023-01-31T02:39:19;15.73;;;3.70;;
13331;SDS011;6735;51.456;12.626;2023-01-31T02:41:56;15.03;;;3.47;;
13331;SDS011;6735;51.456;12.626;2023-01-31T02:44:42;9.80;;;2.90;;
13331;SDS011;6735;51.456;12.626;2023-01-31T02:47:45;13.43;;;3.20;;
13331;SDS011;6735;51.456;12.626;2023-01-31T02:50:45;11.23;;;3.10;;
13331;SDS011;6735;51.456;12.626;2023-01-31T02:53:27;14.93;;;3.37;;
13331;SDS011;6735;51.456;12.626;2023-01-31T02:56:09;14.67;;;3.40;;
13331;SDS011;6735;51.456;12.626;2023-01-31T02:58:45;15.00;;;3.20;;
13331;SDS011;6735;51.456;12.626;2023-01-31T03:01:16;14.67;;;3.50;;
13331;SDS011;6735;51.456;12.626;2023-01-31T03:03:47;16.07;;;3.53;;
13331;SDS011;6735;51.456;12.626;2023-01-31T03:09:13;14.17;;;3.37;;
13331;SDS011;6735;51.456;12.626;2023-01-31T03:11:54;12.20;;;3.17;;
13331;SDS011;6735;51.456;12.626;2023-01-31T03:17:56;14.80;;;3.70;;
13331;SDS011;6735;51.456;12.626;2023-01-31T03:20:29;12.17;;;3.37;;
13331;SDS011;6735;51.456;12.626;2023-01-31T03:23:07;12.83;;;3.67;;
13331;SDS011;6735;51.456;12.626;2023-01-31T03:25:39;10.10;;;3.30;;
13331;SDS011;6735;51.456;12.626;2023-01-31T03:28:10;12.27;;;3.37;;
13331;SDS011;6735;51.456;12.626;2023-01-31T03:36:13;11.57;;;3.60;;
13331;SDS011;6735;51.456;12.626;2023-01-31T03:38:57;14.20;;;3.43;;
13331;SDS011;6735;51.456;12.626;2023-01-31T03:42:20;17.10;;;4.00;;
13331;SDS011;6735;51.456;12.626;2023-01-31T03:47:32;14.67;;;3.53;;
13331;SDS011;6735;51.456;12.626;2023-01-31T03:50:04;19.40;;;4.13;;
13331;SDS011;6735;51.456;12.626;2023-01-31T03:52:36;17.57;;;3.63;;
13331;SDS011;6735;51.456;12.626;2023-01-31T03:55:08;12.93;;;3.77;;
13331;SDS011;6735;51.456;12.626;2023-01-31T03:57:38;13.97;;;4.10;;
13331;SDS011;6735;51.456;12.626;2023-01-31T04:00:06;16.50;;;3.80;;
13331;SDS011;6735;51.456;12.626;2023-01-31T04:02:36;18.30;;;4.63;;
13331;SDS011;6735;51.456;12.626;2023-01-31T04:05:05;14.10;;;3.60;;
13331;SDS011;6735;51.456;12.626;2023-01-31T04:07:38;14.30;;;3.50;;
13331;SDS011;6735;51.456;12.626;2023-01-31T04:10:05;16.93;;;3.27;;
13331;SDS011;6735;51.456;12.626;2023-01-31T04:12:36;11.67;;;3.80;;
13331;SDS011;6735;51.456;12.626;2023-01-31T04:15:02;11.23;;;3.33;;
13331;SDS011;6735;51.456;12.626;2023-01-31T04:17:29;14.53;;;3.60;;
13331;SDS011;6735;51.456;12.626;2023-01-31T04:19:54;11.53;;;3.00;;
13331;SDS011;6735;51.456;12.626;2023-01-31T04:22:19;13.50;;;3.50;;
13331;SDS011;6735;51.456;12.626;2023-01-31T04:24:45;15.67;;;3.37;;
13331;SDS011;6735;51.456;12.626;2023-01-31T04:27:10;11.93;;;3.43;;
13331;SDS011;6735;51.456;12.626;2023-01-31T04:29:36;13.17;;;3.40;;
13331;SDS011;6735;51.456;12.626;2023-01-31T04:32:01;10.32;;;3.70;;
13331;SDS011;6735;51.456;12.626;2023-01-31T04:34:27;15.30;;;4.30;;
13331;SDS011;6735;51.456;12.626;2023-01-31T04:36:52;12.93;;;4.07;;
13331;SDS011;6735;51.456;12.626;2023-01-31T04:39:18;14.47;;;3.63;;
13331;SDS011;6735;51.456;12.626;2023-01-31T04:41:43;11.83;;;3.30;;
13331;SDS011;6735;51.456;12.626;2023-01-31T04:44:08;14.30;;;3.77;;
13331;SDS011;6735;51.456;12.626;2023-01-31T04:46:34;9.43;;;2.70;;
13331;SDS011;6735;51.456;12.626;2023-01-31T04:48:59;15.63;;;3.70;;
13331;SDS011;6735;51.456;12.626;2023-01-31T04:51:25;13.77;;;3.30;;
13331;SDS011;6735;51.456;12.626;2023-01-31T04:53:50;14.77;;;3.80;;
13331;SDS011;6735;51.456;12.626;2023-01-31T04:56:16;10.60;;;3.23;;
13331;SDS011;6735;51.456;12.626;2023-01-31T04:58:41;12.43;;;3.70;;
13331;SDS011;6735;51.456;12.626;2023-01-31T05:01:08;12.63;;;3.30;;
13331;SDS011;6735;51.456;12.626;2023-01-31T05:03:33;10.57;;;3.10;;
13331;SDS011;6735;51.456;12.626;2023-01-31T05:05:58;13.53;;;3.30;;
13331;SDS011;6735;51.456;12.626;2023-01-31T05:08:24;17.70;;;3.60;;
13331;SDS011;6735;51.456;12.626;2023-01-31T05:10:55;12.07;;;3.20;;
13331;SDS011;6735;51.456;12.626;2023-01-31T05:13:25;10.63;;;3.03;;
13331;SDS011;6735;51.456;12.626;2023-01-31T05:15:51;9.17;;;2.83;;
13331;SDS011;6735;51.456;12.626;2023-01-31T05:18:17;10.07;;;2.97;;
13331;SDS011;6735;51.456;12.626;2023-01-31T05:20:42;12.63;;;3.23;;
13331;SDS011;6735;51.456;12.626;2023-01-31T05:23:08;10.73;;;3.63;;
13331;SDS011;6735;51.456;12.626;2023-01-31T05:25:35;13.00;;;3.03;;
13331;SDS011;6735;51.456;12.626;2023-01-31T05:28:02;10.40;;;2.90;;
13331;SDS011;6735;51.456;12.626;2023-01-31T05:30:28;9.83;;;2.60;;
13331;SDS011;6735;51.456;12.626;2023-01-31T05:32:53;11.30;;;3.33;;
13331;SDS011;6735;51.456;12.626;2023-01-31T05:35:19;10.40;;;3.60;;
13331;SDS011;6735;51.456;12.626;2023-01-31T05:37:44;10.47;;;2.93;;
13331;SDS011;6735;51.456;12.626;2023-01-31T05:40:11;11.17;;;3.30;;
13331;SDS011;6735;51.456;12.626;2023-01-31T05:42:38;10.00;;;3.23;;
13331;SDS011;6735;51.456;12.626;2023-01-31T05:45:04;13.70;;;3.90;;
13331;SDS011;6735;51.456;12.626;2023-01-31T05:47:31;10.47;;;3.40;;
13331;SDS011;6735;51.456;12.626;2023-01-31T05:49:57;8.40;;;3.10;;
13331;SDS011;6735;51.456;12.626;2023-01-31T05:52:22;14.30;;;3.47;;
13331;SDS011;6735;51.456;12.626;2023-01-31T05:54:48;13.10;;;3.67;;
13331;SDS011;6735;51.456;12.626;2023-01-31T05:57:13;8.63;;;2.50;;
13331;SDS011;6735;51.456;12.626;2023-01-31T05:59:39;12.23;;;3.17;;
13331;SDS011;6735;51.456;12.626;2023-01-31T06:02:05;12.33;;;3.47;;
13331;SDS011;6735;51.456;12.626;2023-01-31T06:04:30;13.17;;;3.20;;
13331;SDS011;6735;51.456;12.626;2023-01-31T06:06:56;11.07;;;3.83;;
13331;SDS011;6735;51.456;12.626;2023-01-31T06:09:22;13.23;;;4.07;;
13331;SDS011;6735;51.456;12.626;2023-01-31T06:11:47;12.27;;;3.53;;
13331;SDS011;6735;51.456;12.626;2023-01-31T06:14:13;9.33;;;3.20;;
13331;SDS011;6735;51.456;12.626;2023-01-31T06:16:38;10.67;;;3.30;;
13331;SDS011;6735;51.456;12.626;2023-01-31T06:19:03;12.23;;;3.40;;
13331;SDS011;6735;51.456;12.626;2023-01-31T06:21:29;10.43;;;3.30;;
13331;SDS011;6735;51.456;12.626;2023-01-31T06:23:54;13.67;;;3.80;;
13331;SDS011;6735;51.456;12.626;2023-01-31T06:26:20;13.23;;;4.30;;
13331;SDS011;6735;51.456;12.626;2023-01-31T06:28:46;13.80;;;4.10;;
13331;SDS011;6735;51.456;12.626;2023-01-31T06:31:11;13.70;;;3.83;;
13331;SDS011;6735;51.456;12.626;2023-01-31T06:33:37;12.33;;;3.90;;
13331;SDS011;6735;51.456;12.626;2023-01-31T06:36:03;16.97;;;4.07;;
13331;SDS011;6735;51.456;12.626;2023-01-31T06:38:29;10.37;;;2.83;;
13331;SDS011;6735;51.456;12.626;2023-01-31T06:40:55;10.87;;;3.13;;
13331;SDS011;6735;51.456;12.626;2023-01-31T06:43:21;7.33;;;3.10;;
13331;SDS011;6735;51.456;12.626;2023-01-31T06:45:46;11.97;;;3.50;;
13331;SDS011;6735;51.456;12.626;2023-01-31T06:48:13;13.57;;;3.70;;
13331;SDS011;6735;51.456;12.626;2023-01-31T06:50:39;11.57;;;3.37;;
13331;SDS011;6735;51.456;12.626;2023-01-31T06:53:06;10.70;;;3.30;;
13331;SDS011;6735;51.456;12.626;2023-01-31T06:55:32;11.97;;;3.03;;
13331;SDS011;6735;51.456;12.626;2023-01-31T06:57:58;12.80;;;3.27;;
13331;SDS011;6735;51.456;12.626;2023-01-31T07:00:24;12.77;;;3.30;;
13331;SDS011;6735;51.456;12.626;2023-01-31T07:02:50;7.53;;;2.77;;
13331;SDS011;6735;51.456;12.626;2023-01-31T07:05:17;11.57;;;3.47;;
13331;SDS011;6735;51.456;12.626;2023-01-31T07:07:43;12.07;;;3.23;;
13331;SDS011;6735;51.456;12.626;2023-01-31T07:10:09;9.77;;;3.03;;
13331;SDS011;6735;51.456;12.626;2023-01-31T07:12:36;13.47;;;3.33;;
13331;SDS011;6735;51.456;12.626;2023-01-31T07:15:02;12.27;;;3.93;;
13331;SDS011;6735;51.456;12.626;2023-01-31T07:17:27;13.67;;;4.27;;
13331;SDS011;6735;51.456;12.626;2023-01-31T07:19:53;11.43;;;3.70;;
13331;SDS011;6735;51.456;12.626;2023-01-31T07:22:18;18.17;;;3.83;;
13331;SDS011;6735;51.456;12.626;2023-01-31T07:24:44;16.23;;;3.47;;
13331;SDS011;6735;51.456;12.626;2023-01-31T07:27:12;15.13;;;3.67;;
13331;SDS011;6735;51.456;12.626;2023-01-31T07:29:38;11.43;;;3.83;;
13331;SDS011;6735;51.456;12.626;2023-01-31T07:32:04;10.67;;;2.90;;
13331;SDS011;6735;51.456;12.626;2023-01-31T07:34:29;16.93;;;4.10;;
13331;SDS011;6735;51.456;12.626;2023-01-31T07:36:55;14.23;;;3.70;;
13331;SDS011;6735;51.456;12.626;2023-01-31T07:39:20;14.60;;;4.00;;
13331;SDS011;6735;51.456;12.626;2023-01-31T07:41:47;11.60;;;3.73;;
13331;SDS011;6735;51.456;12.626;2023-01-31T07:44:13;9.83;;;3.80;;
13331;SDS011;6735;51.456;12.626;2023-01-31T07:46:38;14.03;;;3.73;;
13331;SDS011;6735;51.456;12.626;2023-01-31T07:49:04;11.43;;;3.43;;
13331;SDS011;6735;51.456;12.626;2023-01-31T07:51:30;15.17;;;3.37;;
13331;SDS011;6735;51.456;12.626;2023-01-31T07:53:55;13.20;;;3.20;;
13331;SDS011;6735;51.456;12.626;2023-01-31T07:56:21;14.17;;;3.47;;
13331;SDS011;6735;51.456;12.626;2023-01-31T07:58:47;14.23;;;3.60;;
13331;SDS011;6735;51.456;12.626;2023-01-31T08:01:15;10.73;;;2.97;;
13331;SDS011;6735;51.456;12.626;2023-01-31T08:04:03;13.27;;;3.17;;
13331;SDS011;6735;51.456;12.626;2023-01-31T08:06:30;11.63;;;3.20;;
13331;SDS011;6735;51.456;12.626;2023-01-31T08:08:56;14.73;;;3.47;;
13331;SDS011;6735;51.456;12.626;2023-01-31T08:11:22;13.63;;;3.50;;
13331;SDS011;6735;51.456;12.626;2023-01-31T08:13:48;11.30;;;3.00;;
13331;SDS011;6735;51.456;12.626;2023-01-31T08:16:13;15.40;;;3.20;;
13331;SDS011;6735;51.456;12.626;2023-01-31T08:18:39;12.77;;;3.47;;
13331;SDS011;6735;51.456;12.626;2023-01-31T08:21:05;6.87;;;2.97;;
13331;SDS011;6735;51.456;12.626;2023-01-31T08:23:32;12.47;;;3.47;;
13331;SDS011;6735;51.456;12.626;2023-01-31T08:26:03;11.93;;;3.97;;
13331;SDS011;6735;51.456;12.626;2023-01-31T08:28:30;14.80;;;3.57;;
13331;SDS011;6735;51.456;12.626;2023-01-31T08:30:56;16.20;;;3.57;;
13331;SDS011;6735;51.456;12.626;2023-01-31T08:33:22;9.00;;;2.90;;
13331;SDS011;6735;51.456;12.626;2023-01-31T08:35:48;11.73;;;3.20;;
13331;SDS011;6735;51.456;12.626;2023-01-31T08:38:13;12.63;;;3.20;;
13331;SDS011;6735;51.456;12.626;2023-01-31T08:40:39;12.00;;;3.60;;
13331;SDS011;6735;51.456;12.626;2023-01-31T08:43:04;11.53;;;3.53;;
13331;SDS011;6735;51.456;12.626;2023-01-31T08:45:30;9.03;;;3.13;;
13331;SDS011;6735;51.456;12.626;2023-01-31T08:47:56;8.87;;;3.23;;
13331;SDS011;6735;51.456;12.626;2023-01-31T08:50:23;12.93;;;3.30;;
13331;SDS011;6735;51.456;12.626;2023-01-31T08:52:51;15.97;;;3.53;;
13331;SDS011;6735;51.456;12.626;2023-01-31T08:55:18;10.03;;;3.10;;
13331;SDS011;6735;51.456;12.626;2023-01-31T08:57:43;11.83;;;3.37;;
13331;SDS011;6735;51.456;12.626;2023-01-31T09:00:10;10.53;;;3.00;;
13331;SDS011;6735;51.456;12.626;2023-01-31T09:02:35;11.23;;;3.63;;
13331;SDS011;6735;51.456;12.626;2023-01-31T09:05:01;9.47;;;3.60;;
13331;SDS011;6735;51.456;12.626;2023-01-31T09:07:26;14.47;;;4.20;;
13331;SDS011;6735;51.456;12.626;2023-01-31T09:09:52;12.13;;;3.83;;
13331;SDS011;6735;51.456;12.626;2023-01-31T09:12:17;9.03;;;3.43;;
13331;SDS011;6735;51.456;12.626;2023-01-31T09:14:43;11.37;;;3.27;;
13331;SDS011;6735;51.456;12.626;2023-01-31T09:17:08;13.70;;;3.73;;
13331;SDS011;6735;51.456;12.626;2023-01-31T09:19:34;13.93;;;4.00;;
13331;SDS011;6735;51.456;12.626;2023-01-31T09:22:00;10.33;;;3.97;;
13331;SDS011;6735;51.456;12.626;2023-01-31T09:24:26;12.50;;;4.23;;
13331;SDS011;6735;51.456;12.626;2023-01-31T09:26:51;13.00;;;4.27;;
13331;SDS011;6735;51.456;12.626;2023-01-31T09:29:18;11.13;;;4.10;;
13331;SDS011;6735;51.456;12.626;2023-01-31T09:31:43;14.07;;;4.13;;
13331;SDS011;6735;51.456;12.626;2023-01-31T09:34:09;11.23;;;3.60;;
13331;SDS011;6735;51.456;12.626;2023-01-31T09:36:34;10.87;;;3.30;;
13331;SDS011;6735;51.456;12.626;2023-01-31T09:39:00;14.00;;;3.90;;
13331;SDS011;6735;51.456;12.626;2023-01-31T09:44:14;9.87;;;3.40;;
13331;SDS011;6735;51.456;12.626;2023-01-31T09:46:53;11.70;;;3.67;;
13331;SDS011;6735;51.456;12.626;2023-01-31T09:49:27;10.47;;;3.40;;
13331;SDS011;6735;51.456;12.626;2023-01-31T09:51:59;8.83;;;3.00;;
13331;SDS011;6735;51.456;12.626;2023-01-31T09:54:36;10.60;;;3.17;;
13331;SDS011;6735;51.456;12.626;2023-01-31T09:57:05;9.57;;;3.43;;
13331;SDS011;6735;51.456;12.626;2023-01-31T09:59:39;12.57;;;3.67;;
13331;SDS011;6735;51.456;12.626;2023-01-31T10:02:23;8.77;;;3.20;;
13331;SDS011;6735;51.456;12.626;2023-01-31T10:10:35;10.30;;;3.50;;
13331;SDS011;6735;51.456;12.626;2023-01-31T10:13:16;11.23;;;3.20;;
13331;SDS011;6735;51.456;12.626;2023-01-31T10:16:08;8.53;;;3.20;;
13331;SDS011;6735;51.456;12.626;2023-01-31T10:18:47;10.90;;;3.67;;
13331;SDS011;6735;51.456;12.626;2023-01-31T10:21:18;12.13;;;4.23;;
13331;SDS011;6735;51.456;12.626;2023-01-31T10:23:55;11.00;;;3.47;;
13331;SDS011;6735;51.456;12.626;2023-01-31T10:26:30;11.60;;;3.73;;
13331;SDS011;6735;51.456;12.626;2023-01-31T10:29:11;8.00;;;3.63;;
13331;SDS011;6735;51.456;12.626;2023-01-31T10:31:52;9.53;;;3.43;;
13331;SDS011;6735;51.456;12.626;2023-01-31T10:34:24;10.03;;;3.53;;
13331;SDS011;6735;51.456;12.626;2023-01-31T10:37:00;10.40;;;3.80;;
13331;SDS011;6735;51.456;12.626;2023-01-31T10:39:44;13.83;;;4.40;;
13331;SDS011;6735;51.456;12.626;2023-01-31T10:44:55;6.70;;;3.60;;
13331;SDS011;6735;51.456;12.626;2023-01-31T10:47:35;11.67;;;3.47;;
13331;SDS011;6735;51.456;12.626;2023-01-31T10:50:13;13.17;;;3.83;;
13331;SDS011;6735;51.456;12.626;2023-01-31T10:55:43;10.60;;;3.77;;
13331;SDS011;6735;51.456;12.626;2023-01-31T10:58:28;14.10;;;4.10;;
13331;SDS011;6735;51.456;12.626;2023-01-31T11:00:53;10.60;;;4.10;;
13331;SDS011;6735;51.456;12.626;2023-01-31T11:03:19;13.73;;;4.07;;
13331;SDS011;6735;51.456;12.626;2023-01-31T11:05:49;15.00;;;4.47;;
13331;SDS011;6735;51.456;12.626;2023-01-31T11:11:16;10.93;;;4.20;;
13331;SDS011;6735;51.456;12.626;2023-01-31T11:13:59;9.03;;;4.10;;
13331;SDS011;6735;51.456;12.626;2023-01-31T11:16:33;15.53;;;4.53;;
13331;SDS011;6735;51.456;12.626;2023-01-31T11:19:02;9.60;;;4.23;;
13331;SDS011;6735;51.456;12.626;2023-01-31T11:21:37;14.23;;;4.67;;
13331;SDS011;6735;51.456;12.626;2023-01-31T11:24:04;11.83;;;3.87;;
13331;SDS011;6735;51.456;12.626;2023-01-31T11:26:39;13.17;;;4.30;;
13331;SDS011;6735;51.456;12.626;2023-01-31T11:29:16;12.80;;;4.40;;
13331;SDS011;6735;51.456;12.626;2023-01-31T11:31:47;10.77;;;4.70;;
13331;SDS011;6735;51.456;12.626;2023-01-31T11:34:21;15.10;;;4.70;;
13331;SDS011;6735;51.456;12.626;2023-01-31T11:36:51;11.47;;;4.93;;
13331;SDS011;6735;51.456;12.626;2023-01-31T11:39:24;10.20;;;4.30;;
13331;SDS011;6735;51.456;12.626;2023-01-31T11:42:30;13.93;;;4.77;;
13331;SDS011;6735;51.456;12.626;2023-01-31T11:44:59;11.27;;;4.60;;
13331;SDS011;6735;51.456;12.626;2023-01-31T11:50:06;14.20;;;4.60;;
13331;SDS011;6735;51.456;12.626;2023-01-31T11:52:42;13.67;;;5.10;;
13331;SDS011;6735;51.456;12.626;2023-01-31T11:55:08;14.63;;;5.37;;
13331;SDS011;6735;51.456;12.626;2023-01-31T11:57:37;16.57;;;5.20;;
13331;SDS011;6735;51.456;12.626;2023-01-31T12:00:06;13.43;;;4.93;;
13331;SDS011;6735;51.456;12.626;2023-01-31T12:02:43;12.73;;;5.50;;
13331;SDS011;6735;51.456;12.626;2023-01-31T12:05:17;14.00;;;5.60;;
13331;SDS011;6735;51.456;12.626;2023-01-31T12:07:47;11.57;;;4.47;;
13331;SDS011;6735;51.456;12.626;2023-01-31T12:10:34;11.93;;;4.90;;
13331;SDS011;6735;51.456;12.626;2023-01-31T12:13:11;10.73;;;5.03;;
13331;SDS011;6735;51.456;12.626;2023-01-31T12:15:44;12.43;;;5.10;;
13331;SDS011;6735;51.456;12.626;2023-01-31T12:18:12;12.80;;;5.27;;
13331;SDS011;6735;51.456;12.626;2023-01-31T12:20:47;11.83;;;4.90;;
13331;SDS011;6735;51.456;12.626;2023-01-31T12:23:34;13.03;;;5.47;;
13331;SDS011;6735;51.456;12.626;2023-01-31T12:26:12;12.47;;;5.20;;
13331;SDS011;6735;51.456;12.626;2023-01-31T12:28:58;13.00;;;5.37;;
13331;SDS011;6735;51.456;12.626;2023-01-31T12:37:45;19.43;;;6.50;;
13331;SDS011;6735;51.456;12.626;2023-01-31T12:40:43;17.17;;;7.13;;
13331;SDS011;6735;51.456;12.626;2023-01-31T12:43:33;18.23;;;6.20;;
13331;SDS011;6735;51.456;12.626;2023-01-31T12:46:32;14.10;;;6.13;;
13331;SDS011;6735;51.456;12.626;2023-01-31T12:51:52;12.60;;;5.90;;
13331;SDS011;6735;51.456;12.626;2023-01-31T12:54:40;14.80;;;6.50;;
13331;SDS011;6735;51.456;12.626;2023-01-31T12:59:55;14.77;;;6.00;;
13331;SDS011;6735;51.456;12.626;2023-01-31T13:02:53;11.13;;;6.17;;
13331;SDS011;6735;51.456;12.626;2023-01-31T13:05:38;12.23;;;5.80;;
13331;SDS011;6735;51.456;12.626;2023-01-31T13:13:41;14.70;;;5.97;;
13331;SDS011;6735;51.456;12.626;2023-01-31T13:16:20;15.17;;;6.23;;
13331;SDS011;6735;51.456;12.626;2023-01-31T13:18:50;15.80;;;6.20;;
13331;SDS011;6735;51.456;12.626;2023-01-31T13:21:20;15.67;;;6.10;;
13331;SDS011;6735;51.456;12.626;2023-01-31T13:23:52;13.60;;;5.90;;
13331;SDS011;6735;51.456;12.626;2023-01-31T13:26:27;11.23;;;5.60;;
13331;SDS011;6735;51.456;12.626;2023-01-31T13:35:36;18.43;;;6.50;;
13331;SDS011;6735;51.456;12.626;2023-01-31T13:37:54;12.23;;;6.27;;
13331;SDS011;6735;51.456;12.626;2023-01-31T13:40:24;15.17;;;6.57;;
13331;SDS011;6735;51.456;12.626;2023-01-31T13:42:53;16.27;;;6.13;;
13331;SDS011;6735;51.456;12.626;2023-01-31T13:45:39;11.10;;;5.90;;
13331;SDS011;6735;51.456;12.626;2023-01-31T13:48:16;13.67;;;6.87;;
13331;SDS011;6735;51.456;12.626;2023-01-31T13:50:58;15.00;;;5.87;;
13331;SDS011;6735;51.456;12.626;2023-01-31T13:53:33;11.10;;;6.60;;
13331;SDS011;6735;51.456;12.626;2023-01-31T13:56:07;14.90;;;7.07;;
13331;SDS011;6735;51.456;12.626;2023-01-31T13:58:37;12.20;;;6.50;;
13331;SDS011;6735;51.456;12.626;2023-01-31T14:01:10;14.43;;;6.83;;
13331;SDS011;6735;51.456;12.626;2023-01-31T14:06:53;15.33;;;6.43;;
13331;SDS011;6735;51.456;12.626;2023-01-31T14:09:32;12.90;;;5.87;;
13331;SDS011;6735;51.456;12.626;2023-01-31T14:17:03;13.87;;;5.37;;
13331;SDS011;6735;51.456;12.626;2023-01-31T14:35:19;12.77;;;6.80;;
13331;SDS011;6735;51.456;12.626;2023-01-31T14:43:55;11.33;;;5.40;;
13331;SDS011;6735;51.456;12.626;2023-01-31T14:46:33;8.47;;;5.43;;
13331;SDS011;6735;51.456;12.626;2023-01-31T14:57:42;10.37;;;6.07;;
13331;SDS011;6735;51.456;12.626;2023-01-31T15:02:42;10.43;;;5.40;;
13331;SDS011;6735;51.456;12.626;2023-01-31T15:10:58;11.90;;;5.73;;
13331;SDS011;6735;51.456;12.626;2023-01-31T15:13:44;10.07;;;5.80;;
13331;SDS011;6735;51.456;12.626;2023-01-31T15:16:22;8.33;;;5.70;;
13331;SDS011;6735;51.456;12.626;2023-01-31T15:19:05;13.53;;;6.20;;
13331;SDS011;6735;51.456;12.626;2023-01-31T15:21:55;12.73;;;6.33;;
13331;SDS011;6735;51.456;12.626;2023-01-31T15:24:26;12.50;;;6.33;;
13331;SDS011;6735;51.456;12.626;2023-01-31T15:26:57;11.23;;;6.47;;
13331;SDS011;6735;51.456;12.626;2023-01-31T15:29:30;13.50;;;6.40;;
13331;SDS011;6735;51.456;12.626;2023-01-31T15:32:19;10.70;;;5.83;;
13331;SDS011;6735;51.456;12.626;2023-01-31T15:34:53;12.10;;;7.00;;
13331;SDS011;6735;51.456;12.626;2023-01-31T15:37:22;12.10;;;6.97;;
13331;SDS011;6735;51.456;12.626;2023-01-31T15:42:27;15.63;;;7.10;;
13331;SDS011;6735;51.456;12.626;2023-01-31T15:45:10;16.93;;;7.53;;
13331;SDS011;6735;51.456;12.626;2023-01-31T15:47:37;14.80;;;6.73;;
13331;SDS011;6735;51.456;12.626;2023-01-31T15:50:15;10.20;;;6.57;;
13331;SDS011;6735;51.456;12.626;2023-01-31T15:52:42;13.43;;;6.37;;
13331;SDS011;6735;51.456;12.626;2023-01-31T15:55:08;13.23;;;6.60;;
13331;SDS011;6735;51.456;12.626;2023-01-31T15:57:38;10.27;;;5.90;;
13331;SDS011;6735;51.456;12.626;2023-01-31T16:00:07;11.00;;;5.97;;
13331;SDS011;6735;51.456;12.626;2023-01-31T16:02:39;14.47;;;6.20;;
13331;SDS011;6735;51.456;12.626;2023-01-31T16:05:05;12.87;;;6.23;;
13331;SDS011;6735;51.456;12.626;2023-01-31T16:07:31;10.97;;;6.90;;
13331;SDS011;6735;51.456;12.626;2023-01-31T16:09:58;11.43;;;6.47;;
13331;SDS011;6735;51.456;12.626;2023-01-31T16:12:25;14.83;;;7.30;;
13331;SDS011;6735;51.456;12.626;2023-01-31T16:14:53;12.37;;;7.30;;
13331;SDS011;6735;51.456;12.626;2023-01-31T16:17:23;13.87;;;7.63;;
13331;SDS011;6735;51.456;12.626;2023-01-31T16:19:52;11.27;;;7.23;;
13331;SDS011;6735;51.456;12.626;2023-01-31T16:22:21;11.33;;;6.40;;
13331;SDS011;6735;51.456;12.626;2023-01-31T16:24:59;11.23;;;6.00;;
13331;SDS011;6735;51.456;12.626;2023-01-31T16:27:27;9.00;;;6.20;;
13331;SDS011;6735;51.456;12.626;2023-01-31T16:29:56;12.33;;;6.93;;
13331;SDS011;6735;51.456;12.626;2023-01-31T16:35:03;10.90;;;7.00;;
13331;SDS011;6735;51.456;12.626;2023-01-31T16:37:40;12.63;;;6.77;;
13331;SDS011;6735;51.456;12.626;2023-01-31T16:40:19;9.77;;;6.57;;
13331;SDS011;6735;51.456;12.626;2023-01-31T16:43:17;11.17;;;6.60;;
13331;SDS011;6735;51.456;12.626;2023-01-31T16:45:53;11.37;;;5.80;;
13331;SDS011;6735;51.456;12.626;2023-01-31T16:48:24;11.47;;;6.83;;
13331;SDS011;6735;51.456;12.626;2023-01-31T16:50:57;12.83;;;6.57;;
13331;SDS011;6735;51.456;12.626;2023-01-31T16:53:30;11.40;;;6.90;;
13331;SDS011;6735;51.456;12.626;2023-01-31T16:58:42;9.40;;;6.03;;